PST,Max TemperatureF,Mean TemperatureF,Min TemperatureF,Max Dew PointF,MeanDew PointF,Min DewpointF,Max Humidity, Mean Humidity, Min Humidity, Max Sea Level PressureIn, Mean Sea Level PressureIn, Min Sea Level PressureIn, Max VisibilityMiles, Mean VisibilityMiles, Min VisibilityMiles, Max Wind SpeedMPH, Mean Wind SpeedMPH, Max Gust SpeedMPH,PrecipitationIn, CloudCover, Events, WindDirDegrees
2014-2-1,50,42,35,39,37,34,100,85,58,30.21,30.13,30.00,10,10,10,12,5,,0.00,4,,118
2014-2-2,50,44,37,41,37,36,100,81,62,30.05,30.00,29.98,10,10,7,13,7,,0.01,7,Rain,34
2014-2-3,44,38,33,41,35,32,100,90,71,30.17,30.12,30.06,10,10,5,18,2,24,0.12,7,Rain,176
2014-2-4,44,38,32,37,34,30,100,90,70,30.28,30.22,30.17,10,9,2,16,5,21,0.09,7,Rain,108
2014-2-5,37,32,26,28,18,10,87,59,45,30.30,30.23,30.08,10,10,10,30,21,37,0.00,1,,83
2014-2-6,32,28,23,32,23,9,100,84,47,30.08,29.82,29.65,10,7,0,31,23,41,0.09,8,Snow,83
2014-2-7,33,30,28,32,30,27,100,98,93,29.87,29.76,29.58,10,8,2,14,7,,0.08,7,Snow,83
2014-2-8,50,42,33,50,37,32,100,98,93,30.00,29.80,29.63,10,5,1,30,12,47,0.28,8,Rain,105
2014-2-9,53,45,37,46,43,36,100,94,77,30.08,30.04,30.01,10,8,0,12,6,,0.03,6,Fog-Rain,119
2014-2-10,50,44,37,50,45,36,100,97,87,30.23,30.18,30.08,10,5,0,25,12,31,0.37,8,Fog-Rain,180
2014-2-11,50,49,48,50,48,46,100,96,87,30.21,30.08,29.80,10,4,1,43,18,59,1.05,8,Rain,194
2014-2-12,50,49,48,50,50,48,100,100,94,29.96,29.90,29.79,4,2,0,43,24,61,0.99,8,Rain,208
2014-2-13,53,50,46,52,48,45,100,92,76,30.19,30.03,29.78,10,6,2,21,10,31,0.50,6,Rain,175
2014-2-14,51,48,46,52,49,45,100,97,87,30.03,29.94,29.80,10,5,2,29,17,39,0.24,7,Rain,185
2014-2-15,53,47,41,52,47,37,100,94,81,29.93,29.67,29.38,10,6,1,47,14,63,1.17,8,Rain,172
2014-2-16,50,46,42,45,41,36,93,77,66,30.10,30.01,29.89,10,7,4,33,20,46,0.05,6,Rain,205
2014-2-17,50,47,44,48,46,43,100,90,82,30.06,29.97,29.83,10,4,2,37,22,52,0.66,8,Rain,207
2014-2-18,51,46,41,50,44,34,100,88,66,30.09,29.97,29.81,10,5,1,38,19,50,0.63,7,Rain,223
2014-2-19,50,44,39,45,40,36,93,82,66,30.30,30.24,30.09,10,7,2,20,10,29,0.14,7,Rain,238
2014-2-20,50,47,44,48,45,43,100,94,82,30.33,30.30,30.27,10,4,2,20,10,25,0.18,8,Rain,244
2014-2-21,50,41,32,46,41,32,100,90,71,30.35,30.31,30.26,10,9,2,15,3,18,0.01,4,,4
2014-2-22,50,41,32,41,36,32,100,87,58,30.26,30.17,30.07,10,9,1,15,5,,0.00,0,,48
2014-2-23,50,42,35,46,40,34,100,92,71,30.08,30.02,30.00,10,9,2,16,6,22,0.05,4,Rain,120
2014-2-24,59,52,44,55,50,45,100,95,88,30.04,30.00,29.96,10,8,2,12,6,,0.01,7,Rain,104
2014-2-25,60,52,44,50,43,36,94,72,55,29.98,29.92,29.88,10,10,10,25,16,30,0.00,1,,79
2014-2-26,57,50,42,41,36,34,81,66,55,29.90,29.80,29.64,10,10,10,24,14,31,0.00,5,Rain,85
2014-2-27,53,48,42,52,45,34,100,89,62,29.76,29.71,29.61,10,9,3,20,8,25,0.14,8,Rain,100
2014-2-28,64,54,44,48,46,43,100,79,52,29.70,29.50,29.40,10,10,10,20,9,26,0.00,2,,83